Minonk, IL (61760)

2:01 AM CDT on July 01, 2015 (GMT -0500)
APRSWXNET | | Change Station
CLOSE
Current Station
Personal Weather Station
Location: Woodford, IL
Elevation: 771 ft
Nearby Weather Stations
Active Advisory: Flood Warning

Elev 771 ft 40.89 °N, 89.03 °W | Updated 24 minutes ago

Clear
Clear
63 °F
Feels Like 63 °F
N
0
Wind Variable Wind from ENE
Gusts 1.0 mph

Today
High -- | Low -- °F
--% Chance of Precip.
Yesterday
High -- | Low -- °F
Precip. -- in
5:27 AM 8:31 PM
Waxing Gibbous, 99% visible
Pressure 29.89 in
Visibility 7.0 miles
Clouds Mostly Cloudy 4800 ft
Mostly Cloudy 5000 ft
Mostly Cloudy 7500 ft
Dew Point 60 °F
Humidity 91%
Rainfall in
Snow Depth Not available.
UV 0 out of 12
Pollen 4.00 out of 12
Air Quality Not available.
Flu Activity Not available.
METAR KC75 010655Z AUTO 00000KT 7SM BKN048 BKN050 BKN075 18/17 A2989 RMK AO2 T01760166

More Conditions Fewer Conditions

Pressure 29.89 in
Visibility 7.0 miles
Clouds Mostly Cloudy 4800 ft
Mostly Cloudy 5000 ft
Mostly Cloudy 7500 ft
Dew Point 60 °F
Humidity 91%
Rainfall in
Snow Depth Not available.
UV 0 out of 12
Pollen 4.00 out of 12
Air Quality Not available.
Flu Activity Not available.
METAR KC75 010655Z AUTO 00000KT 7SM BKN048 BKN050 BKN075 18/17 A2989 RMK AO2 T01760166

More Conditions Fewer Conditions

10-Day Weather Forecast

×

Almanac

Astronomy

Jul. 01, 2015 Rise Set
Actual Time
Civil Twilight
Nautical Twilight
Astronomical Twilight
Moon
Length of Visible Light
Length of Day
Tomorrow will be .
, % of the Moon is Illuminated

Today's Extremes

State Highs State Lows

Community

WunderPhotos

Upload Photos

1,834,163 photos uploaded!

WunderBlogs® & News

Nearby

Air Quality

  Air Quality AQ Index Pollutant
Not available.

Snow Depth

Station Depth Elevation

Earthquake Activity

City Distance Mag. Time & Date
Minimum magnitude displayed is 2.5.

Coastal Water Temperatures

Place Temperature

Stations

Nearby Weather Stations

Station Location Temp. Windchill Dew Point Humidity Wind Precip. Elev Updated Type
                   
Flood Warning
Statement as of 9:30 PM CDT on June 30, 2015

The Flood Warning continues for
the Illinois River near Peoria.
* Until further notice.
* At 845 PM Tuesday the stage was 27.1 feet.
* Flood stage is 18.0 feet.
* Moderate flooding is occurring and moderate flooding is forecast.
* Forecast... the river is near its crest this evening. Additional
rises may be possible thereafter.
* Impact... at 26.5 feet... several houses in Rome and Chillicothe
become isolated.



                  Fld observed forecast 6am
location stg stg day time Wed Thu Fri

Illinois River
Peoria 18 27.1 Tue 9 PM 27.1 27.0 26.8



Lat... Lon 4093 8952 4093 8941 4062 8957 4047 8980
      4053 8988 4068 8965